Terminal Aerodrome Forecast
Issued by NWS Shreveport, LA

Home | Current Version | Previous Version | Text Only | Print | Product List | Glossary On
Versions: 1 2 3 4 5 6 7 8 9 10 11 12 13 14 15
178
FTUS44 KSHV 280532
TAFLFK
TAF
KLFK 280532Z 2806/2906 18013KT P6SM BKN015
     FM280700 17006KT P6SM BKN020
      TEMPO 2809/2813 OVC010
     FM281600 20008KT P6SM SCT030 BKN250
     FM282300 18007KT P6SM VCTS SCT050CB BKN100
     FM290300 12003KT 5SM BR OVC050=

USA.gov is the U.S. government's official web portal to all federal, state and local government web resources and services.